logo tempoitalia

Diretta Meteo St-Etienne Boutheon, Francialunedì 31 agosto ore 07:00

Mappa
Sereno 16 °C Nuvoloso 24 Ore: T.min 16 T.max 31
Ponente Nord Km/h 1.8 Punto di rugiada: 15 °C Umidità: 93% Visibilità: 10 Km
Il sole sorge alle: 07:03 Il sole tramonta alle: 20:23
31 Agosto 2026 07:00 tempo osservato: Nuvoloso Nuvoloso 16 93 1020 vento: Nord N 1.8
31 Agosto 2026 06:30 tempo osservato: Sereno Sereno 17 93 1020 vento: Nord NO 7.4
31 Agosto 2026 06:00 tempo osservato: Sereno Sereno 17 88 1020 vento: Nord N 5.5
31 Agosto 2026 05:30 tempo osservato: Sereno Sereno 17 88 1020 vento: Nord N/NE 9.3
31 Agosto 2026 05:00 tempo osservato: Sereno Sereno 18 93 1019 vento: Nord N 5.5
31 Agosto 2026 04:30 tempo osservato: Sereno Sereno 19 88 1019 vento: Nord N 5.5
31 Agosto 2026 04:00 tempo osservato: Sereno Sereno 19 82 1019 vento: Nord N 5.5
31 Agosto 2026 03:30 tempo osservato: Sereno Sereno 19 82 1019 vento: Nord N 0
31 Agosto 2026 03:00 tempo osservato: Sereno Sereno 20 82 1019 vento: Nord N 3.7
31 Agosto 2026 02:30 tempo osservato: Sereno Sereno 20 77 1020 vento: Nord N 3.7
31 Agosto 2026 02:00 tempo osservato: Sereno Sereno 20 77 1020 vento: Nord N 3.7
31 Agosto 2026 01:30 tempo osservato: Molto Nuvoloso Molto Nuvoloso 20 77 1020 vento: Nord N 7.4
31 Agosto 2026 01:00 tempo osservato: Coperto Coperto 20 82 1020 vento: Nord N 5.5
31 Agosto 2026 00:30 tempo osservato: Sereno Sereno 20 82 1019 vento: Nord N 11.1
31 Agosto 2026 00:00 tempo osservato: Sereno Sereno 21 77 1019 vento: Nord N/NO 9.3
30 Agosto 2026 23:30 tempo osservato: Sereno Sereno 21 77 1018 vento: Nord N/NO 9.3
30 Agosto 2026 23:00 tempo osservato: Sereno Sereno 22 68 1018 vento: Nord N 9.3
30 Agosto 2026 22:30 tempo osservato: Sereno Sereno 23 64 1017 vento: Nord N 13
30 Agosto 2026 22:00 tempo osservato: Sereno Sereno 25 44 1017 vento: Nord N 5.5
30 Agosto 2026 21:30 tempo osservato: Sereno Sereno 26 41 1016 vento: Nord O 9.3
30 Agosto 2026 21:00 tempo osservato: Sereno Sereno 27 39 1015 vento: Nord O/SO 7.4
30 Agosto 2026 20:30 tempo osservato: Sereno Sereno 28 37 1015 vento: Nord O 11.1
30 Agosto 2026 20:00 tempo osservato: Sereno Sereno 28 37 1015 vento: Nord NO 11.1
30 Agosto 2026 19:30 tempo osservato: Sereno Sereno 30 37 1014 vento: Nord N 5.5
30 Agosto 2026 19:00 tempo osservato: Sereno Sereno 30 37 1014 vento: Nord E/NE 11.1
30 Agosto 2026 18:30 tempo osservato: Sereno Sereno 30 37 1014 vento: Nord N/NE 14.8
30 Agosto 2026 18:00 tempo osservato: Sereno Sereno 29 39 1014 vento: Nord N 14.8
30 Agosto 2026 17:30 tempo osservato: Sereno Sereno 31 33 1015 vento: Nord N 7.4
30 Agosto 2026 17:00 tempo osservato: Sereno Sereno 30 35 1015 vento: Nord N/NO 9.3
30 Agosto 2026 16:30 tempo osservato: Sereno Sereno 31 35 1015 vento: Nord N/NO 11.1
30 Agosto 2026 16:00 tempo osservato: Sereno Sereno 31 31 1015 vento: Nord S/SO 11.1
30 Agosto 2026 15:30 tempo osservato: Sereno Sereno 30 35 1015 vento: Nord S 7.4
30 Agosto 2026 15:00 tempo osservato: Sereno Sereno 30 37 1016 vento: Nord S 14.8
30 Agosto 2026 14:30 tempo osservato: Sereno Sereno 29 39 1016 vento: Nord S 9.3
30 Agosto 2026 14:00 tempo osservato: Sereno Sereno 29 37 1016 vento: Nord N 7.4
30 Agosto 2026 13:30 tempo osservato: Sereno Sereno 29 39 1017 vento: Nord N 7.4
30 Agosto 2026 13:00 tempo osservato: Sereno Sereno 28 42 1017 vento: Nord N 5.5
30 Agosto 2026 12:30 tempo osservato: Sereno Sereno 27 44 1017 vento: Nord E 7.4
30 Agosto 2026 12:00 tempo osservato: Sereno Sereno 26 47 1018 vento: Nord O 7.4
30 Agosto 2026 11:30 tempo osservato: Sereno Sereno 26 47 1018 vento: Nord N 7.4
30 Agosto 2026 11:00 tempo osservato: Sereno Sereno 25 50 1018 vento: Nord N 3.7
30 Agosto 2026 10:30 tempo osservato: Sereno Sereno 25 47 1018 vento: Nord N 3.7
30 Agosto 2026 10:00 tempo osservato: Sereno Sereno 24 53 1018 vento: Nord N 5.5
30 Agosto 2026 09:30 tempo osservato: Sereno Sereno 23 53 1018 vento: Nord N 3.7
30 Agosto 2026 09:00 tempo osservato: Sereno Sereno 22 56 1018 vento: Nord N 0
30 Agosto 2026 08:30 tempo osservato: Sereno Sereno 20 64 1018 vento: Nord N 5.5
30 Agosto 2026 08:00 tempo osservato: Sereno Sereno 18 72 1018 vento: Nord S 7.4